»·PEaware :: N626N KTOA-KCMA

N626N :: KTOA-KCMA

FLIGHT INFORMATION

Flight Status: Arrived
Operator: Privately registered:
United States
More flights under this callsign
Pilot: Bruno O. (13284)
Aircraft: Unknown
(B60T)
More flights by this aircraft type
Origin: KTOA Zamperini
United States
Destination: KCMA Camarillo
United States
More flights between these airports :: More routes between these airports
Route: LIMBO V8 WILMA V25 LAX VTU
File this flight plan on PilotEdge
Remarks: / TEC ROUTE SCTN27
Altitude:
(Current/Filed)
6,000ft
Speed:
(Current/Filed)
200kts
Departed: 09-Jan-18 07:31 AM
Arrived: 09-Jan-18 08:40 AM
Distance/Time
Traveled:
45nm/1:09
Distance/Time
To Go:
Arrived

Flight Plot

Page will automatically refresh every two minutes.

Flight plan parsing failed; only flown route is shown


Map Options




Map Legend


Flown Route
Filed Route
Departure Airport
Arrival Airport
Navaid (VOR, NDB)
Fix

Horizontal Profiles

Position Reports

Time Latitude Longitude Heading Altitude Ground
Speed
09-Jan-18 07:26 33.801073 -118.340634 217 106ft 0kts
09-Jan-18 07:27 33.801073 -118.340634 217 106ft 0kts
09-Jan-18 07:28 33.801073 -118.340634 217 106ft 0kts
09-Jan-18 07:29 33.801073 -118.340634 217 106ft 0kts
09-Jan-18 07:30 33.801072 -118.340635 217 106ft 0kts
09-Jan-18 07:31 33.801071 -118.340637 217 106ft 0kts
09-Jan-18 07:32 33.801069 -118.340638 217 106ft 0kts
09-Jan-18 07:33 33.801067 -118.340640 217 106ft 0kts
09-Jan-18 07:34 33.801240 -118.339417 90 106ft 7kts
09-Jan-18 07:35 33.799810 -118.336818 36 106ft 0kts
09-Jan-18 07:36 33.800377 -118.336732 308 106ft 0kts
09-Jan-18 07:37 33.819728 -118.360920 332 1467ft 169kts
09-Jan-18 07:38 33.863705 -118.383136 333 3937ft 188kts
09-Jan-18 07:39 33.913373 -118.417920 324 5947ft 231kts
09-Jan-18 07:40 33.946665 -118.478560 277 5998ft 218kts
09-Jan-18 07:41 33.966606 -118.548609 280 5996ft 222kts
09-Jan-18 07:42 33.987531 -118.618860 280 5995ft 221kts
09-Jan-18 07:43 34.008132 -118.688538 280 5995ft 221kts
09-Jan-18 07:44 34.028810 -118.758803 281 5991ft 221kts
09-Jan-18 07:45 34.049343 -118.828497 281 5989ft 220kts
09-Jan-18 07:46 34.068898 -118.895227 281 5988ft 218kts
09-Jan-18 07:47 34.088562 -118.962432 281 5995ft 216kts
09-Jan-18 07:48 34.108006 -119.026458 282 5995ft 210kts
09-Jan-18 07:49 34.139718 -119.082752 344 4881ft 218kts
09-Jan-18 07:50 34.193655 -119.063596 339 4011ft 191kts
09-Jan-18 07:51 34.208501 -119.109727 260 3992ft 153kts
09-Jan-18 07:52 34.206992 -119.163255 263 3982ft 161kts
09-Jan-18 07:53 34.206144 -119.217051 264 3985ft 159kts
09-Jan-18 08:07 33.801073 -118.340634 217 106ft 0kts
09-Jan-18 08:08 33.801073 -118.340634 217 106ft 0kts
09-Jan-18 08:09 33.801073 -118.340634 217 106ft 0kts
09-Jan-18 08:10 33.801073 -118.340634 217 106ft 0kts
09-Jan-18 08:11 33.801073 -118.340634 217 106ft 0kts
09-Jan-18 08:12 33.801073 -118.340634 217 106ft 0kts
09-Jan-18 08:13 33.801073 -118.340634 217 106ft 0kts
09-Jan-18 08:14 33.801073 -118.340634 217 106ft 0kts
09-Jan-18 08:15 33.801073 -118.340634 217 106ft 0kts
09-Jan-18 08:16 33.801073 -118.340635 217 106ft 0kts
09-Jan-18 08:17 33.801070 -118.340637 217 106ft 0kts
09-Jan-18 08:18 33.801068 -118.340639 217 106ft 0kts
09-Jan-18 08:19 33.801065 -118.340642 217 106ft 0kts
09-Jan-18 08:20 33.801062 -118.340645 217 106ft 0kts
09-Jan-18 08:21 33.801060 -118.340647 217 106ft 0kts
09-Jan-18 08:22 33.800630 -118.340138 97 106ft 6kts
09-Jan-18 08:23 33.800480 -118.338208 127 106ft 7kts
09-Jan-18 08:24 33.799837 -118.336796 38 106ft 3kts
09-Jan-18 08:25 33.800251 -118.336519 310 106ft 0kts
09-Jan-18 08:26 33.819364 -118.363864 311 1753ft 159kts
09-Jan-18 08:27 33.850868 -118.405574 309 4062ft 184kts
09-Jan-18 08:28 33.900192 -118.432388 340 5316ft 201kts
09-Jan-18 08:29 33.956246 -118.453518 308 5992ft 205kts
09-Jan-18 08:30 33.975733 -118.513366 281 6001ft 197kts
09-Jan-18 08:31 33.992926 -118.576877 280 5998ft 201kts
09-Jan-18 08:32 34.007145 -118.631104 281 5996ft 205kts
09-Jan-18 08:33 34.027155 -118.708018 281 5986ft 207kts
09-Jan-18 08:34 34.069598 -118.746557 6 5177ft 217kts
09-Jan-18 08:35 34.117662 -118.733861 11 4210ft 205kts
09-Jan-18 08:36 34.178086 -118.716869 11 4016ft 196kts
09-Jan-18 08:37 34.213481 -118.732047 280 4022ft 163kts
09-Jan-18 08:38 34.224365 -118.781696 284 4015ft 146kts
09-Jan-18 08:39 34.228897 -118.836831 261 3466ft 151kts
09-Jan-18 08:40 34.226296 -118.875173 261 3314ft 140kts
09-Jan-18 08:41 34.223242 -118.923464 261 3041ft 140kts
09-Jan-18 08:42 34.220679 -118.962925 261 2277ft 120kts
09-Jan-18 08:43 34.214386 -119.000488 254 1426ft 104kts
09-Jan-18 08:44 34.212844 -119.036081 271 855ft 104kts
09-Jan-18 08:45 34.213537 -119.071169 269 314ft 105kts
09-Jan-18 08:46 34.213392 -119.095171 231 78ft 13kts
09-Jan-18 08:47 34.211858 -119.094212 90 78ft 8kts
09-Jan-18 08:48 34.211804 -119.090819 87 78ft 12kts
09-Jan-18 08:49 34.210583 -119.089448 88 78ft 0kts
09-Jan-18 08:50 34.210583 -119.089445 88 78ft 0kts
09-Jan-18 08:51 34.210583 -119.089445 88 78ft 0kts
09-Jan-18 08:52 34.210583 -119.089445 88 78ft 0kts
09-Jan-18 08:53 34.210583 -119.089445 88 78ft 0kts
09-Jan-18 08:54 34.210583 -119.089445 88 78ft 0kts
09-Jan-18 08:55 34.210583 -119.089445 88 78ft 0kts
09-Jan-18 08:56 34.210583 -119.089445 88 78ft 0kts
09-Jan-18 08:57 34.210583 -119.089445 88 78ft 0kts
09-Jan-18 08:58 34.210583 -119.089445 88 78ft 0kts
09-Jan-18 08:59 34.210583 -119.089445 88 78ft 0kts
09-Jan-18 09:00 34.210583 -119.089445 88 78ft 0kts
09-Jan-18 09:01 34.210583 -119.089445 88 78ft 0kts

Navigation Log

Ident Type
Flight plan parsing failed, navigation log unavailable